createdAt,value
2022-10-17T00:00:55.998Z,14.20
2022-10-17T00:03:23.064Z,12.73
2022-10-17T00:05:50.128Z,13.32
2022-10-17T00:08:18.201Z,12.88
2022-10-17T00:10:45.657Z,13.18
2022-10-17T00:13:13.099Z,13.18
2022-10-17T00:15:44.329Z,15.30
2022-10-17T00:18:11.376Z,13.20
2022-10-17T00:20:38.429Z,13.85
2022-10-17T00:23:05.592Z,14.18
2022-10-17T00:25:32.660Z,13.68
2022-10-17T00:27:59.710Z,16.02
2022-10-17T00:30:26.758Z,15.80
2022-10-17T00:32:53.810Z,15.80
2022-10-17T00:35:20.999Z,13.70
2022-10-17T00:37:48.910Z,13.45
2022-10-17T00:40:17.080Z,14.95
2022-10-17T00:42:46.449Z,14.68
2022-10-17T00:45:16.506Z,17.27
2022-10-17T00:47:45.139Z,15.35
2022-10-17T00:50:12.608Z,15.85
2022-10-17T00:52:40.554Z,16.13
2022-10-17T00:55:21.497Z,12.93
2022-10-17T00:57:48.964Z,14.98
2022-10-17T01:00:17.636Z,14.85
2022-10-17T01:02:45.203Z,13.38
2022-10-17T01:05:12.970Z,14.05
2022-10-17T01:07:41.186Z,15.13
2022-10-17T01:10:09.022Z,15.65
2022-10-17T01:12:39.106Z,13.20
2022-10-17T01:15:12.114Z,14.07
2022-10-17T01:20:43.505Z,14.55
2022-10-17T01:23:10.555Z,15.35
2022-10-17T01:25:47.979Z,15.68
2022-10-17T01:28:27.317Z,15.02
2022-10-17T01:30:54.499Z,14.35
2022-10-17T01:33:24.888Z,13.05
2022-10-17T01:35:51.944Z,12.75
2022-10-17T01:38:39.913Z,13.93
2022-10-17T01:41:10.762Z,12.23
2022-10-17T01:44:17.438Z,15.38
2022-10-17T01:46:47.554Z,13.90
2022-10-17T01:49:16.256Z,13.68
2022-10-17T01:51:49.401Z,14.40
2022-10-17T01:54:21.231Z,13.68
2022-10-17T01:56:50.320Z,12.70
2022-10-17T01:59:19.731Z,13.68
2022-10-17T02:01:52.579Z,14.15
2022-10-17T02:04:20.086Z,15.48
2022-10-17T02:06:47.181Z,15.82
2022-10-17T02:09:27.417Z,14.98
2022-10-17T02:12:07.179Z,13.65
2022-10-17T02:14:44.318Z,14.18
2022-10-17T02:17:15.135Z,15.93
2022-10-17T02:19:52.985Z,16.70
2022-10-17T02:22:25.718Z,13.43
2022-10-17T02:24:52.743Z,14.13
2022-10-17T02:27:48.717Z,14.32
2022-10-17T02:30:23.079Z,15.32
2022-10-17T02:32:59.625Z,14.35
2022-10-17T02:35:30.124Z,15.55
2022-10-17T02:37:57.761Z,15.55
2022-10-17T02:40:25.202Z,16.38
2022-10-17T02:42:53.498Z,14.50
2022-10-17T02:45:20.792Z,14.13
2022-10-17T02:47:55.493Z,13.93
2022-10-17T02:53:02.485Z,16.52
2022-10-17T02:55:31.597Z,16.02
2022-10-17T02:58:03.799Z,17.13
2022-10-17T03:00:31.738Z,15.10
2022-10-17T03:02:59.080Z,15.50
2022-10-17T03:05:27.470Z,16.98
2022-10-17T03:07:54.952Z,15.38
2022-10-17T03:10:22.403Z,15.07
2022-10-17T03:12:49.562Z,17.30
2022-10-17T03:15:16.744Z,16.42
2022-10-17T03:20:16.648Z,14.32
2022-10-17T03:22:43.718Z,16.27
2022-10-17T03:25:10.806Z,16.27
2022-10-17T03:27:37.919Z,16.98
2022-10-17T03:30:05.594Z,16.23
2022-10-17T03:32:34.357Z,16.48
2022-10-17T03:35:01.623Z,16.20
2022-10-17T03:37:29.007Z,13.82
2022-10-17T03:39:56.546Z,16.75
2022-10-17T03:42:24.148Z,14.93
2022-10-17T03:44:51.206Z,18.10
2022-10-17T03:47:18.271Z,16.63
2022-10-17T03:49:46.247Z,16.73
2022-10-17T03:52:13.902Z,15.18
2022-10-17T03:54:41.227Z,13.80
2022-10-17T03:57:08.274Z,14.52
2022-10-17T03:59:35.936Z,16.98
2022-10-17T04:02:07.876Z,17.27
2022-10-17T04:04:35.792Z,16.58
2022-10-17T04:07:03.454Z,17.73
2022-10-17T04:09:30.669Z,16.30
2022-10-17T04:12:06.537Z,15.35
2022-10-17T04:14:35.887Z,16.92
2022-10-17T04:17:03.365Z,16.25
2022-10-17T04:19:31.227Z,15.95
2022-10-17T04:21:58.458Z,14.90
2022-10-17T04:24:27.779Z,16.17
2022-10-17T04:27:06.725Z,15.82
2022-10-17T04:29:37.521Z,17.08
2022-10-17T04:32:17.050Z,17.70
2022-10-17T04:35:02.790Z,15.93
2022-10-17T04:37:30.567Z,16.40
2022-10-17T04:39:59.290Z,13.50
2022-10-17T04:42:29.587Z,18.15
2022-10-17T04:44:57.104Z,18.40
2022-10-17T04:47:25.987Z,15.85
2022-10-17T04:49:53.096Z,18.88
2022-10-17T04:52:22.202Z,17.83
2022-10-17T04:54:50.556Z,16.00
2022-10-17T04:57:18.640Z,20.40
2022-10-17T04:59:54.501Z,18.25
2022-10-17T05:02:27.431Z,17.42
2022-10-17T05:04:55.532Z,19.08
2022-10-17T05:07:22.706Z,15.93
2022-10-17T05:10:04.116Z,15.10
2022-10-17T05:12:32.718Z,17.02
2022-10-17T05:14:59.973Z,18.55
2022-10-17T05:17:28.316Z,15.70
2022-10-17T05:19:55.383Z,17.23
2022-10-17T05:22:22.919Z,17.85
2022-10-17T05:24:50.121Z,16.90
2022-10-17T05:27:17.219Z,13.32
2022-10-17T05:29:45.558Z,16.77
2022-10-17T05:32:27.982Z,19.13
2022-10-17T05:34:55.712Z,15.40
2022-10-17T05:37:25.043Z,17.00
2022-10-17T05:39:55.335Z,15.93
2022-10-17T05:42:22.497Z,13.85
2022-10-17T05:44:49.623Z,16.27
2022-10-17T05:47:19.310Z,14.55
2022-10-17T05:49:51.451Z,15.48
2022-10-17T05:52:23.097Z,16.25
2022-10-17T05:55:10.687Z,20.38
2022-10-17T05:57:38.035Z,14.10
2022-10-17T06:00:09.222Z,16.70
2022-10-17T06:02:42.515Z,16.13
2022-10-17T06:05:11.556Z,15.82
2022-10-17T06:07:39.398Z,17.33
2022-10-17T06:10:07.007Z,16.95
2022-10-17T06:12:34.745Z,19.00
2022-10-17T06:15:01.930Z,19.45
2022-10-17T06:17:30.251Z,14.77
2022-10-17T06:19:58.357Z,16.42
2022-10-17T06:22:25.443Z,16.23
2022-10-17T06:24:53.647Z,18.17
2022-10-17T06:27:21.126Z,16.05
2022-10-17T06:29:48.708Z,15.52
2022-10-17T06:32:16.993Z,15.73
2022-10-17T06:34:46.762Z,16.60
2022-10-17T06:37:14.859Z,14.82
2022-10-17T06:39:42.704Z,20.55
2022-10-17T06:42:15.899Z,15.35
2022-10-17T06:44:56.311Z,14.55
2022-10-17T06:47:36.744Z,14.68
2022-10-17T06:50:13.824Z,14.23
2022-10-17T06:53:03.879Z,16.65
2022-10-17T06:55:53.878Z,14.90
2022-10-17T06:58:29.071Z,15.80
2022-10-17T07:01:16.385Z,13.80
2022-10-17T07:03:48.279Z,16.48
2022-10-17T07:06:15.359Z,17.20
2022-10-17T07:08:44.505Z,15.95
2022-10-17T07:11:13.653Z,13.90
2022-10-17T07:13:40.897Z,17.45
2022-10-17T07:16:08.129Z,17.60
2022-10-17T07:18:36.100Z,16.23
2022-10-17T07:21:03.942Z,17.67
2022-10-17T07:23:31.596Z,16.52
2022-10-17T07:26:02.488Z,17.42
2022-10-17T07:28:29.904Z,15.20
2022-10-17T07:31:05.569Z,14.93
2022-10-17T07:33:33.341Z,14.85
2022-10-17T07:36:00.915Z,15.38
2022-10-17T07:38:28.407Z,14.80
2022-10-17T07:40:56.938Z,15.48
2022-10-17T07:43:25.076Z,15.88
2022-10-17T07:45:53.745Z,17.08
2022-10-17T07:48:21.709Z,15.43
2022-10-17T07:50:49.379Z,13.88
2022-10-17T07:53:16.420Z,16.42
2022-10-17T07:55:46.265Z,15.57
2022-10-17T07:58:13.776Z,14.77
2022-10-17T08:00:41.233Z,15.50
2022-10-17T08:03:08.494Z,13.75
2022-10-17T08:05:35.554Z,16.55
2022-10-17T08:08:02.589Z,16.25
2022-10-17T08:10:29.714Z,14.25
2022-10-17T08:12:57.683Z,13.82
2022-10-17T08:15:28.017Z,14.57
2022-10-17T08:17:58.623Z,13.45
2022-10-17T08:20:25.654Z,16.23
2022-10-17T08:22:56.016Z,17.08
2022-10-17T08:25:23.405Z,13.57
2022-10-17T08:27:50.643Z,19.35
2022-10-17T08:30:18.220Z,18.33
2022-10-17T08:32:45.493Z,15.82
2022-10-17T08:35:14.612Z,17.27
2022-10-17T08:37:41.886Z,15.77
2022-10-17T08:40:18.953Z,14.38
2022-10-17T08:42:46.441Z,14.00
2022-10-17T08:45:38.993Z,13.38
2022-10-17T08:48:10.439Z,13.68
2022-10-17T08:50:42.822Z,15.55
2022-10-17T08:53:18.591Z,15.90
2022-10-17T08:55:52.649Z,16.70
2022-10-17T08:58:21.727Z,14.80
2022-10-17T09:00:53.856Z,16.00
2022-10-17T09:03:20.916Z,14.57
2022-10-17T09:05:51.387Z,16.77
2022-10-17T09:08:31.863Z,15.23
2022-10-17T09:11:10.594Z,15.70
2022-10-17T09:13:40.382Z,17.55
2022-10-17T09:16:15.570Z,14.25
2022-10-17T09:18:46.332Z,14.55
2022-10-17T09:21:26.784Z,16.55
2022-10-17T09:24:09.316Z,16.33
2022-10-17T09:26:39.173Z,16.15
2022-10-17T09:29:12.874Z,15.05
2022-10-17T09:31:44.784Z,15.43
2022-10-17T09:34:12.258Z,16.10
2022-10-17T09:36:40.330Z,14.68
2022-10-17T09:39:21.180Z,12.45
2022-10-17T09:41:52.393Z,13.48
2022-10-17T09:44:25.636Z,15.27
2022-10-17T09:47:13.662Z,14.95
2022-10-17T09:49:41.918Z,16.80
2022-10-17T09:52:19.721Z,15.18
2022-10-17T09:54:52.565Z,15.75
2022-10-17T09:59:48.974Z,17.05
2022-10-17T10:02:20.831Z,14.25
2022-10-17T10:05:06.282Z,12.73
2022-10-17T10:07:35.234Z,15.50
2022-10-17T10:10:03.454Z,15.30
2022-10-17T10:12:36.498Z,13.93
2022-10-17T10:15:23.520Z,14.23
2022-10-17T10:17:50.559Z,12.93
2022-10-17T10:20:31.442Z,13.57
2022-10-17T10:23:17.306Z,16.63
2022-10-17T10:25:53.042Z,13.85
2022-10-17T10:28:20.402Z,12.35
2022-10-17T10:30:51.848Z,12.77
2022-10-17T10:33:26.145Z,13.82
2022-10-17T10:35:57.166Z,14.52
2022-10-17T10:38:24.438Z,14.90
2022-10-17T10:40:56.738Z,12.75
2022-10-17T10:43:32.991Z,13.10
2022-10-17T10:46:00.139Z,11.70
2022-10-17T10:48:36.619Z,12.60
2022-10-17T10:51:10.050Z,11.98
2022-10-17T10:53:55.822Z,12.90
2022-10-17T10:56:25.980Z,12.65
2022-10-17T10:58:53.039Z,12.38
2022-10-17T11:01:20.287Z,11.77
2022-10-17T11:04:17.435Z,13.25
2022-10-17T11:06:45.768Z,11.02
2022-10-17T11:09:44.964Z,11.35
2022-10-17T11:12:20.667Z,11.82
2022-10-17T11:14:52.361Z,10.93
2022-10-17T11:17:19.492Z,11.90
2022-10-17T11:19:59.304Z,10.25
2022-10-17T11:22:37.208Z,11.45
2022-10-17T11:25:25.101Z,12.63
2022-10-17T11:27:52.159Z,12.45
2022-10-17T11:30:19.366Z,12.15
2022-10-17T11:32:46.413Z,11.77
2022-10-17T11:35:27.843Z,11.10
2022-10-17T11:38:10.625Z,12.55
2022-10-17T11:40:40.881Z,10.98
2022-10-17T11:43:20.192Z,10.90
2022-10-17T11:45:52.874Z,12.15
2022-10-17T11:48:29.283Z,11.93
2022-10-17T11:54:02.869Z,11.15
2022-10-17T11:56:38.037Z,13.68
2022-10-17T11:59:46.975Z,10.68
2022-10-17T12:02:33.002Z,11.82
2022-10-17T12:05:23.632Z,13.52
2022-10-17T12:08:09.416Z,11.60
2022-10-17T12:10:54.837Z,11.32
2022-10-17T12:16:22.052Z,11.27
2022-10-17T12:19:02.975Z,11.70
2022-10-17T12:22:00.276Z,12.20
2022-10-17T12:24:35.641Z,11.70
2022-10-17T12:27:36.150Z,11.38
2022-10-17T12:30:12.426Z,12.80
2022-10-17T12:33:21.762Z,10.40
2022-10-17T12:35:50.969Z,9.57
2022-10-17T12:38:18.009Z,11.85
2022-10-17T12:40:48.980Z,12.05
2022-10-17T12:43:16.229Z,12.32
2022-10-17T12:45:54.356Z,11.82
2022-10-17T12:48:36.735Z,10.15
2022-10-17T12:51:30.630Z,10.00
2022-10-17T12:54:00.720Z,8.25
2022-10-17T12:56:36.699Z,8.05
2022-10-17T12:59:08.466Z,8.40
2022-10-17T13:01:37.344Z,7.22
2022-10-17T13:04:06.467Z,8.45
2022-10-17T13:06:37.765Z,6.97
2022-10-17T13:09:08.777Z,9.70
2022-10-17T13:11:36.751Z,7.95
2022-10-17T13:14:09.924Z,7.97
2022-10-17T13:16:39.024Z,8.55
2022-10-17T13:19:16.391Z,7.55
2022-10-17T13:22:06.856Z,8.73
2022-10-17T13:24:39.498Z,7.53
2022-10-17T13:27:28.513Z,7.57
2022-10-17T13:29:57.071Z,8.68
2022-10-17T13:32:25.695Z,9.35
2022-10-17T13:35:13.001Z,8.25
2022-10-17T13:37:42.164Z,8.68
2022-10-17T13:40:40.463Z,9.50
2022-10-17T13:43:05.880Z,10.68
2022-10-17T13:45:36.757Z,10.20
2022-10-17T13:48:06.378Z,11.52
2022-10-17T13:50:44.029Z,8.43
2022-10-17T13:53:17.639Z,8.93
2022-10-17T13:56:26.357Z,9.55
2022-10-17T13:58:52.628Z,10.13
2022-10-17T14:01:21.157Z,10.07
2022-10-17T14:03:51.779Z,10.07
2022-10-17T14:06:29.429Z,10.88
2022-10-17T14:09:01.862Z,10.68
2022-10-17T14:11:39.534Z,11.18
2022-10-17T14:14:21.889Z,10.43
2022-10-17T14:16:49.155Z,13.13
2022-10-17T14:19:30.970Z,10.63
2022-10-17T14:22:21.011Z,11.35
2022-10-17T14:24:48.634Z,13.02
2022-10-17T14:28:03.447Z,11.88
2022-10-17T14:33:30.561Z,12.70
2022-10-17T14:36:00.118Z,11.75
2022-10-17T14:38:28.764Z,13.02
2022-10-17T14:41:04.814Z,11.82
2022-10-17T14:43:42.431Z,14.10
2022-10-17T14:46:15.122Z,12.68
2022-10-17T14:48:42.934Z,13.25
2022-10-17T14:51:15.284Z,11.82
2022-10-17T14:53:43.331Z,10.93
2022-10-17T14:56:26.576Z,12.60
2022-10-17T14:58:53.961Z,13.25
2022-10-17T15:01:21.074Z,13.10
2022-10-17T15:03:48.174Z,14.48
2022-10-17T15:06:20.473Z,13.48
2022-10-17T15:08:47.572Z,15.65
2022-10-17T15:11:14.629Z,12.02
2022-10-17T15:13:45.536Z,12.52
2022-10-17T15:16:19.810Z,12.57
2022-10-17T15:18:46.983Z,12.30
2022-10-17T15:21:26.461Z,12.45
2022-10-17T15:24:01.727Z,12.50
2022-10-17T15:26:32.203Z,14.05
2022-10-17T15:28:59.341Z,11.50
2022-10-17T15:31:26.959Z,10.00
2022-10-17T15:33:54.256Z,13.60
2022-10-17T15:36:21.886Z,14.35
2022-10-17T15:38:49.342Z,13.25
2022-10-17T15:41:16.414Z,13.63
2022-10-17T15:43:43.518Z,11.40
2022-10-17T15:46:16.717Z,11.15
2022-10-17T15:48:43.860Z,13.07
2022-10-17T15:51:10.904Z,13.13
2022-10-17T15:53:38.006Z,14.90
2022-10-17T15:56:05.556Z,12.68
2022-10-17T15:58:37.012Z,10.52
2022-10-17T16:01:05.382Z,11.02
2022-10-17T16:03:32.875Z,11.98
2022-10-17T16:06:00.303Z,11.63
2022-10-17T16:08:28.252Z,13.88
2022-10-17T16:10:56.401Z,11.95
2022-10-17T16:13:24.641Z,16.60
2022-10-17T16:15:51.867Z,13.57
2022-10-17T16:18:20.037Z,11.40
2022-10-17T16:20:47.411Z,17.08
2022-10-17T16:23:14.572Z,13.45
2022-10-17T16:25:41.332Z,12.90
2022-10-17T16:28:08.420Z,12.15
2022-10-17T16:30:42.438Z,14.82
2022-10-17T16:33:10.301Z,12.82
2022-10-17T16:35:37.709Z,13.93
2022-10-17T16:38:05.815Z,13.30
2022-10-17T16:40:32.874Z,12.95
2022-10-17T16:42:59.912Z,12.18
2022-10-17T16:45:26.541Z,13.90
2022-10-17T16:47:53.668Z,12.68
2022-10-17T16:50:20.842Z,13.15
2022-10-17T16:52:47.967Z,10.55
2022-10-17T16:55:15.085Z,11.82
2022-10-17T17:00:16.680Z,11.10
2022-10-17T17:02:43.889Z,11.82
2022-10-17T17:05:11.073Z,12.32
2022-10-17T17:07:38.221Z,13.65
2022-10-17T17:10:05.695Z,10.95
2022-10-17T17:12:34.237Z,11.60
2022-10-17T17:15:01.298Z,12.75
2022-10-17T17:17:37.380Z,15.57
2022-10-17T17:20:15.419Z,15.13
2022-10-17T17:22:42.496Z,12.73
2022-10-17T17:25:09.660Z,14.40
2022-10-17T17:27:36.688Z,12.35
2022-10-17T17:30:03.943Z,16.75
2022-10-17T17:32:32.903Z,16.20
2022-10-17T17:35:00.168Z,14.20
2022-10-17T17:37:27.542Z,12.10
2022-10-17T17:39:54.720Z,10.77
2022-10-17T17:42:21.734Z,14.43
2022-10-17T17:44:49.724Z,14.13
2022-10-17T17:47:16.766Z,12.85
2022-10-17T17:49:43.812Z,11.88
2022-10-17T17:52:10.896Z,14.27
2022-10-17T17:54:40.780Z,12.65
2022-10-17T17:57:08.244Z,13.32
2022-10-17T17:59:35.336Z,14.48
2022-10-17T18:02:02.778Z,15.07
2022-10-17T18:04:29.937Z,12.63
2022-10-17T18:06:56.970Z,16.35
2022-10-17T18:09:24.077Z,16.05
2022-10-17T18:11:51.149Z,14.98
2022-10-17T18:14:23.633Z,16.10
2022-10-17T18:16:50.975Z,16.15
2022-10-17T18:19:18.314Z,18.60
2022-10-17T18:21:45.755Z,16.98
2022-10-17T18:24:12.872Z,16.58
2022-10-17T18:26:39.941Z,17.02
2022-10-17T18:29:07.101Z,15.30
2022-10-17T18:31:35.805Z,16.13
2022-10-17T18:34:03.258Z,17.60
2022-10-17T18:36:30.782Z,14.48
2022-10-17T18:38:58.059Z,15.88
2022-10-17T18:41:26.037Z,18.58
2022-10-17T18:43:53.934Z,17.13
2022-10-17T18:46:30.877Z,21.00
2022-10-17T18:48:58.325Z,18.05
2022-10-17T18:51:26.123Z,16.13
2022-10-17T18:53:54.246Z,17.90
2022-10-17T18:56:22.231Z,14.80
2022-10-17T18:58:49.314Z,15.68
2022-10-17T19:01:20.587Z,13.25
2022-10-17T19:03:48.589Z,17.00
2022-10-17T19:06:18.446Z,15.90
2022-10-17T19:08:45.988Z,18.70
2022-10-17T19:11:15.286Z,17.50
2022-10-17T19:13:43.045Z,21.05
2022-10-17T19:16:16.494Z,17.20
2022-10-17T19:18:43.906Z,19.45
2022-10-17T19:21:11.873Z,19.70
2022-10-17T19:23:39.095Z,18.75
2022-10-17T19:26:11.275Z,18.85
2022-10-17T19:28:39.535Z,21.27
2022-10-17T19:31:07.003Z,17.40
2022-10-17T19:33:34.556Z,19.10
2022-10-17T19:36:02.972Z,18.45
2022-10-17T19:38:30.029Z,20.95
2022-10-17T19:40:57.152Z,20.25
2022-10-17T19:43:24.257Z,18.63
2022-10-17T19:45:59.508Z,19.17
2022-10-17T19:48:27.008Z,21.35
2022-10-17T19:50:54.510Z,19.33
2022-10-17T19:53:23.326Z,20.70
2022-10-17T19:55:50.732Z,21.42
2022-10-17T19:58:17.870Z,21.13
2022-10-17T20:00:51.574Z,20.38
2022-10-17T20:03:19.119Z,19.33
2022-10-17T20:05:46.451Z,17.00
2022-10-17T20:08:14.019Z,21.55
2022-10-17T20:10:41.273Z,21.58
2022-10-17T20:13:08.561Z,21.20
2022-10-17T20:15:35.657Z,22.17
2022-10-17T20:18:02.928Z,22.42
2022-10-17T20:20:30.005Z,24.73
2022-10-17T20:22:57.137Z,24.08
2022-10-17T20:25:24.194Z,24.88
2022-10-17T20:27:51.304Z,23.13
2022-10-17T20:30:18.396Z,25.10
2022-10-17T20:32:45.030Z,23.95
2022-10-17T20:35:12.064Z,25.58
2022-10-17T20:37:42.370Z,23.48
2022-10-17T20:40:33.464Z,26.52
2022-10-17T20:42:57.463Z,24.38
2022-10-17T20:45:37.536Z,23.92
2022-10-17T20:48:15.557Z,25.85
2022-10-17T20:50:43.636Z,26.42
2022-10-17T20:53:35.345Z,22.50
2022-10-17T20:56:02.799Z,23.00
2022-10-17T20:58:30.563Z,23.70
2022-10-17T21:00:57.656Z,26.63
2022-10-17T21:03:25.327Z,26.60
2022-10-17T21:05:52.465Z,23.88
2022-10-17T21:08:24.341Z,23.88
2022-10-17T21:10:55.877Z,24.70
2022-10-17T21:13:23.875Z,25.30
2022-10-17T21:15:50.959Z,25.98
2022-10-17T21:18:18.052Z,24.13
2022-10-17T21:20:45.126Z,29.90
2022-10-17T21:23:12.163Z,23.52
2022-10-17T21:25:40.801Z,26.58
2022-10-17T21:28:07.978Z,24.77
2022-10-17T21:30:35.083Z,23.48
2022-10-17T21:33:02.172Z,25.20
2022-10-17T21:35:29.219Z,27.17
2022-10-17T21:37:56.271Z,28.23
2022-10-17T21:40:23.321Z,24.60
2022-10-17T21:42:50.370Z,23.65
2022-10-17T21:45:25.256Z,21.67
2022-10-17T21:48:12.337Z,26.20
2022-10-17T21:50:41.346Z,24.23
2022-10-17T21:53:08.380Z,29.33
2022-10-17T21:55:38.553Z,23.10
2022-10-17T21:58:05.737Z,29.40
2022-10-17T22:00:32.817Z,23.80
2022-10-17T22:03:00.933Z,22.35
2022-10-17T22:05:27.968Z,24.77
2022-10-17T22:07:55.015Z,23.67
2022-10-17T22:10:22.071Z,25.58
2022-10-17T22:12:49.120Z,24.85
2022-10-17T22:15:16.280Z,27.55
2022-10-17T22:17:42.924Z,21.73
2022-10-17T22:20:10.102Z,23.40
2022-10-17T22:22:37.187Z,24.65
2022-10-17T22:25:04.316Z,21.38
2022-10-17T22:27:31.635Z,20.85
2022-10-17T22:29:58.799Z,23.50
2022-10-17T22:32:25.883Z,24.50
2022-10-17T22:34:53.259Z,26.02
2022-10-17T22:37:20.302Z,27.45
2022-10-17T22:39:47.399Z,27.40
2022-10-17T22:42:14.470Z,27.05
2022-10-17T22:44:41.623Z,20.80
2022-10-17T22:47:08.654Z,23.20
2022-10-17T22:49:35.695Z,21.17
2022-10-17T22:52:02.816Z,21.17
2022-10-17T22:54:29.894Z,21.00
2022-10-17T22:56:56.938Z,22.10
2022-10-17T22:59:24.055Z,23.25
2022-10-17T23:01:51.169Z,20.45
2022-10-17T23:04:18.230Z,21.40
2022-10-17T23:06:45.262Z,19.98
2022-10-17T23:09:13.274Z,18.77
2022-10-17T23:11:40.332Z,20.75
2022-10-17T23:14:07.392Z,17.38
2022-10-17T23:16:34.434Z,18.88
2022-10-17T23:19:01.454Z,21.73
2022-10-17T23:21:28.507Z,21.13
2022-10-17T23:23:55.631Z,22.15
2022-10-17T23:26:22.673Z,16.35
2022-10-17T23:28:54.264Z,18.92
2022-10-17T23:31:22.029Z,19.50
2022-10-17T23:33:49.803Z,23.58
2022-10-17T23:36:17.974Z,24.52
2022-10-17T23:38:45.945Z,35.75
2022-10-17T23:41:13.315Z,59.22
2022-10-17T23:43:40.511Z,43.40
2022-10-17T23:46:07.604Z,36.38
2022-10-17T23:48:34.674Z,111.47
2022-10-17T23:51:01.903Z,45.03
2022-10-17T23:53:28.970Z,45.80
2022-10-17T23:55:56.011Z,39.95
2022-10-17T23:58:23.045Z,54.22
